Monday, October 15, 2018, 11:39 PM EDT
Back to Local

KLNS, Lancaster Airport

Location: Lititz, PA, United States Lat: 40.117
Local Time: 11:39 PM EDT ( 3:39 GMT) Lon: -76.3
Time Zone: US/Eastern Elev: 403 ft

Show me the last for .
Show Decoded

2018-10-15 22:53 METAR KLNS 160253Z AUTO 32010KT 10SM -RA FEW025 OVC034 17/15 A2999 RMK AO2
                 RAE20B38 SLP155 P0001 60003 T01670150 53027 =
2018-10-15 21:53 METAR KLNS 160153Z 29013KT 7SM -RA BKN017 OVC024 19/17 A2996 RMK AO2 WSHFT 0102
                 RAB52 SLP145 P0002 T01890172 =
2018-10-15 21:21 METAR KLNS 160121Z 30010KT 10SM BKN020 BKN040 OVC060 19/17 A2993 RMK AO2 WSHFT
                 0102 T01940172 =
2018-10-15 20:53 METAR KLNS 160053Z 23012G20KT 10SM BKN055 BKN090 20/17 A2992 RMK AO2 SLP130
                 T02000172 =
2018-10-15 19:53 METAR KLNS 152353Z 21007KT 10SM FEW070 19/17 A2991 RMK AO2 SLP127 60002
                 T01890172 10194 20178 58005 =
2018-10-15 18:53 METAR KLNS 152253Z 22008KT 10SM OVC065 19/18 A2992 RMK AO2 SLP130 T01940178 =
2018-10-15 17:53 METAR KLNS 152153Z 22005KT 10SM OVC100 19/18 A2992 RMK AO2 RAB44E53 SLP131 P0000
                 T01890178 =
2018-10-15 16:53 METAR KLNS 152053Z 22006KT 10SM OVC110 19/17 A2993 RMK AO2 RAB24E44 SLP133 P0000
                 60002 T01890172 58021 =
2018-10-15 15:53 METAR KLNS 151953Z 20007KT 9SM OVC110 18/17 A2994 RMK AO2 RAE30 SLP139 P0001
                 T01830172 =
2018-10-15 14:53 METAR KLNS 151853Z 21007KT 5SM -RA BR BKN085 OVC110 18/17 A2997 RMK AO2 RAB09
                 SLP150 P0001 T01780167 =
2018-10-15 14:09 METAR KLNS 151809Z 22008KT 10SM -RA SCT015 SCT035 BKN110 18/16 A2999 RMK AO2
                 RAB09 P0000 T01780161 =
2018-10-15 13:53 METAR KLNS 151753Z 22008KT 10SM BKN013 BKN034 18/16 A2999 RMK AO2 RAB29E41
                 SLP155 P0000 60001 T01780161 10200 20144 58021 =
2018-10-15 12:53 METAR KLNS 151653Z 22010KT 10SM OVC011 18/16 A3002 RMK AO2 SLP165 T01780161 =
2018-10-15 11:53 METAR KLNS 151553Z 20005KT 10SM OVC010 17/16 A3003 RMK AO2 SLP167 T01720156 =
2018-10-15 11:46 METAR KLNS 151546Z 20005KT 10SM OVC010 17/16 A3003 RMK AO2 T01720156 =
2018-10-15 11:19 METAR KLNS 151519Z 22007KT 10SM OVC009 17/16 A3004 RMK AO2 T01670156 =
2018-10-15 10:53 METAR KLNS 151453Z 20006KT 10SM OVC010 18/16 A3005 RMK AO2 CIG 008V012 SLP176
                 60001 T01830156 58010 =
2018-10-15 10:01 METAR KLNS 151401Z 20006KT 9SM OVC010 16/14 A3006 RMK AO2 CIG 007V012 T01560144
                 =
2018-10-15 09:53 METAR KLNS 151353Z 21006KT 9SM OVC009 15/14 A3007 RMK AO2 RAE06 CIG 007V012
                 SLP182 P0000 T01500144 =
2018-10-15 09:46 METAR KLNS 151346Z 21006KT 9SM OVC009 15/14 A3008 RMK AO2 RAE06 CIG 007V012
                 P0000 T01500144 =
2018-10-15 09:33 METAR KLNS 151333Z 22007KT 8SM OVC010 15/14 A3008 RMK AO2 RAE06 CIG 007V012
                 P0000 T01500144 =
2018-10-15 09:06 METAR KLNS 151306Z 21006KT 8SM OVC009 15/14 A3008 RMK AO2 RAE06 CIG 007V013
                 P0000 T01500144 =
2018-10-15 08:53 METAR KLNS 151253Z 21005KT 5SM -RA BR OVC010 15/14 A3008 RMK AO2 SLP186 P0001
                 T01500139 =
2018-10-15 07:53 METAR KLNS 151153Z 19005KT 7SM -RA BKN011 OVC018 14/14 A3008 RMK AO2 RAB28
                 SLP186 P0000 60007 70008 T01440139 10144 20117 58006 =
2018-10-15 07:17 METAR KLNS 151117Z 00000KT 4SM BR BKN013 OVC018 13/13 A3008 RMK AO2 T01330133 =
2018-10-15 07:09 METAR KLNS 151109Z 07003KT 4SM BR BKN015 OVC021 13/13 A3009 RMK AO2 T01330128 =
2018-10-15 06:53 METAR KLNS 151053Z 00000KT 3SM BR FEW005 BKN013 OVC022 13/13 A3009 RMK AO2
                 SLP190 T01280128 =
2018-10-15 06:49 METAR KLNS 151049Z 00000KT 4SM BR FEW005 BKN011 OVC022 13/13 A3009 RMK AO2 CIG
                 008V013 =
2018-10-15 06:16 METAR KLNS 151016Z 00000KT 4SM BR SCT003 OVC009 13/13 A3010 RMK AO2 CIG 007V011
                 T01330133 =
2018-10-15 05:53 METAR KLNS 150953Z 14004KT 4SM BR OVC003 12/12 A3010 RMK AO2 SLP192 T01220122 =
2018-10-15 05:06 METAR KLNS 150906Z AUTO 00000KT 5SM BR OVC004 12/12 A3012 RMK AO2 T01220117 =
2018-10-15 04:53 METAR KLNS 150853Z AUTO 09003KT 5SM BR OVC005 12/12 A3012 RMK AO2 SLP198 60007
                 T01220122 56019 =
2018-10-15 04:43 METAR KLNS 150843Z AUTO 08004KT 5SM BR OVC005 12/12 A3012 RMK AO2 T01170117 =
2018-10-15 03:53 METAR KLNS 150753Z AUTO 12004KT 5SM BR OVC004 12/12 A3013 RMK AO2 RAE48 SLP204
                 P0002 T01170117 =
2018-10-15 03:30 METAR KLNS 150730Z AUTO 11004KT 3SM -RA BR OVC004 12/12 A3014 RMK AO2 CIG
                 003V007 P0001 T01170117 =
2018-10-15 03:09 METAR KLNS 150709Z AUTO 10004KT 3SM -RA BR OVC008 12/11 A3015 RMK AO2 P0001
                 T01170111 =
2018-10-15 02:53 METAR KLNS 150653Z AUTO 11004KT 3SM -RA BR OVC010 12/11 A3016 RMK AO2 SLP212
                 P0005 T01170111 =
2018-10-15 02:44 METAR KLNS 150644Z AUTO 11003KT 2 1/2SM RA BR OVC011 12/11 A3016 RMK AO2 P0005
                 T01170111 =
2018-10-15 02:04 METAR KLNS 150604Z AUTO 11004KT 4SM -RA BR OVC014 12/11 A3017 RMK AO2 P0000
                 T01170106 =
2018-10-15 01:53 METAR KLNS 150553Z AUTO 11003KT 6SM -RA BR OVC016 12/11 A3017 RMK AO2 RAB49
                 SLP218 P0000 60000 T01170106 10117 20117 56012 =
2018-10-15 00:53 METAR KLNS 150453Z AUTO 12005KT 10SM OVC023 12/10 A3018 RMK AO2 SLP221 T01170100
                 401220056 =
2018-10-15 00:22 METAR KLNS 150422Z AUTO 10004KT 10SM OVC029 12/11 A3019 RMK AO2 T01170106 =
2018-10-14 23:53 METAR KLNS 150353Z AUTO 10003KT 10SM SCT027 OVC035 12/11 A3019 RMK AO2 SLP225
                 T01170106 =

Support USWX by starting your Amazon purchase here.